Terminal Aerodrome Forecast
Issued by NWS Buffalo, NY

Current Version | Previous Version | Text Only | Print | Product List | Glossary On
Versions: 1 2 3 4 5 6 7 8 9 10 11 12 13 14 15 16 17 18 19 20 21 22 23 24 25 26
303
FTUS41 KBUF 191736
TAFBUF
TAF
KBUF 191736Z 1918/2018 25016G24KT P6SM SCT040 BKN200
     FM192100 25014G22KT P6SM BKN040
     FM200100 27008KT P6SM SCT040
     FM200600 23004KT P6SM SKC
     FM201600 25010KT P6SM SCT040=

USA.gov is the U.S. government's official web portal to all federal, state and local government web resources and services.